Guarulhos - Governador Andre Franco Montoro International Airport

SBGR | GRU

Sao Paulo , Sao-Paulo , Brazil

Sunday, June 7th, 2020 | 02:22

Weather

SBGR 070500Z 03003KT 5000 TSRA BR BKN025 SCT040CB OVC080 18/18 Q1020 RERA

Charts

1 Available

Gates

196 Available

Runways

2 Available

Active ATC

Events -Coming Soon-

1 Events Coming Up Soon

Next event:
SBGR Flyout